createdAt,value
2023-03-23T16:00:30.055Z,95224.84
2023-03-23T16:05:33.309Z,95233.63
2023-03-23T16:10:36.094Z,95232.78
2023-03-23T16:15:37.631Z,95223.72
2023-03-23T16:20:39.074Z,95225.59
2023-03-23T16:25:40.906Z,95223.53
2023-03-23T16:30:44.690Z,95228.47
2023-03-23T16:35:46.403Z,95216.03
2023-03-23T16:40:48.438Z,95226.19
2023-03-23T16:45:50.088Z,95220.22
2023-03-23T16:50:52.593Z,95215.13
2023-03-23T16:55:54.165Z,95210.41
2023-03-23T17:01:01.139Z,95220.03
2023-03-23T17:06:02.990Z,95224.78
2023-03-23T17:11:04.639Z,95227.38
2023-03-23T17:16:06.724Z,95227.25
2023-03-23T17:21:08.271Z,95233.97
2023-03-23T17:26:09.782Z,95242.47
2023-03-23T17:31:11.269Z,95240.50
2023-03-23T17:36:12.820Z,95255.09
2023-03-23T17:41:14.339Z,95255.31
2023-03-23T17:46:15.952Z,95271.69
2023-03-23T17:51:17.584Z,95268.25
2023-03-23T17:56:19.097Z,95278.06
2023-03-23T18:01:20.674Z,95272.13
2023-03-23T18:06:22.211Z,95273.50
2023-03-23T18:11:23.686Z,95278.19
2023-03-23T18:16:26.291Z,95286.03
2023-03-23T18:21:27.831Z,95290.91
2023-03-23T18:26:30.562Z,95285.63
2023-03-23T18:31:32.079Z,95280.16
2023-03-23T18:36:34.198Z,95289.16
2023-03-23T18:41:35.694Z,95282.97
2023-03-23T18:46:37.279Z,95284.81
2023-03-23T18:51:38.878Z,95280.25
2023-03-23T18:56:40.440Z,95283.91
2023-03-23T19:01:41.995Z,95275.81
2023-03-23T19:06:43.550Z,95282.63
2023-03-23T19:11:46.205Z,95286.66
2023-03-23T19:16:48.051Z,95288.50
2023-03-23T19:21:49.583Z,95281.53
2023-03-23T19:26:51.094Z,95276.56
2023-03-23T19:31:54.292Z,95270.13
2023-03-23T19:37:04.096Z,95263.78
2023-03-23T19:42:08.214Z,95262.88
2023-03-23T19:47:10.501Z,95257.00
2023-03-23T19:52:13.586Z,95244.16
2023-03-23T19:57:16.673Z,95243.41
2023-03-23T20:02:18.340Z,95241.47
2023-03-23T20:07:21.341Z,95232.22
2023-03-23T20:12:22.970Z,95235.91
2023-03-23T20:17:25.538Z,95232.31
2023-03-23T20:22:27.028Z,95234.44
2023-03-23T20:27:28.719Z,95220.66
2023-03-23T20:32:31.458Z,95216.97
2023-03-23T20:37:33.705Z,95206.84
2023-03-23T20:42:35.553Z,95210.66
2023-03-23T20:47:38.202Z,95204.56
2023-03-23T20:52:39.752Z,95190.22
2023-03-23T20:57:41.279Z,95178.53
2023-03-23T21:02:42.829Z,95170.56
2023-03-23T21:07:44.410Z,95169.75
2023-03-23T21:12:45.914Z,95168.94
2023-03-23T21:17:47.462Z,95157.56
2023-03-23T21:22:49.598Z,95144.88
2023-03-23T21:27:51.774Z,95134.75
2023-03-23T21:32:53.897Z,95143.72
2023-03-23T21:37:55.396Z,95141.22
2023-03-23T21:42:57.185Z,95137.56
2023-03-23T21:47:58.748Z,95125.09
2023-03-23T21:53:00.350Z,95122.13
2023-03-23T21:58:02.092Z,95128.09
2023-03-23T22:03:03.974Z,95113.59
2023-03-23T22:08:05.514Z,95114.22
2023-03-23T22:13:07.470Z,95104.66
2023-03-23T22:18:09.028Z,95081.03
2023-03-23T22:23:11.205Z,95078.09
2023-03-23T22:28:12.756Z,95076.13
2023-03-23T22:33:14.376Z,95070.06
2023-03-23T22:38:16.322Z,95079.81
2023-03-23T22:43:17.827Z,95078.09
2023-03-23T22:48:20.787Z,95080.56
2023-03-23T22:53:22.481Z,95068.59
2023-03-23T22:58:26.020Z,95068.13
2023-03-23T23:03:28.543Z,95061.69
2023-03-23T23:08:30.261Z,95071.31
2023-03-23T23:13:33.220Z,95067.25
2023-03-23T23:18:35.839Z,95060.72
2023-03-23T23:23:37.545Z,95070.56
2023-03-23T23:28:38.982Z,95083.03
2023-03-23T23:33:40.599Z,95105.78
2023-03-23T23:38:42.108Z,95107.41
2023-03-23T23:43:43.589Z,95094.94
2023-03-23T23:48:45.096Z,95092.94
2023-03-23T23:53:47.027Z,95081.34
2023-03-23T23:58:48.490Z,95104.28
